createdAt,value
2022-09-22T00:01:14.282Z,1.45
2022-09-22T00:03:43.219Z,1.65
2022-09-22T00:06:12.072Z,1.48
2022-09-22T00:08:40.709Z,1.40
2022-09-22T00:11:13.702Z,1.55
2022-09-22T00:13:41.900Z,1.70
2022-09-22T00:16:11.564Z,1.67
2022-09-22T00:18:39.438Z,1.55
2022-09-22T00:21:09.211Z,1.40
2022-09-22T00:23:37.054Z,1.60
2022-09-22T00:26:08.152Z,1.50
2022-09-22T00:28:35.905Z,1.50
2022-09-22T00:31:06.311Z,1.65
2022-09-22T00:33:35.437Z,1.40
2022-09-22T00:36:03.977Z,1.60
2022-09-22T00:38:32.268Z,1.63
2022-09-22T00:41:00.782Z,1.70
2022-09-22T00:43:30.076Z,1.65
2022-09-22T00:45:59.831Z,1.45
2022-09-22T00:48:28.224Z,1.80
2022-09-22T00:50:57.201Z,1.63
2022-09-22T00:53:25.127Z,1.60
2022-09-22T00:55:54.552Z,1.55
2022-09-22T00:58:24.173Z,1.60
2022-09-22T01:00:51.929Z,1.60
2022-09-22T01:03:24.042Z,1.80
2022-09-22T01:05:57.672Z,1.50
2022-09-22T01:08:25.375Z,1.52
2022-09-22T01:10:53.279Z,1.50
2022-09-22T01:13:25.684Z,1.70
2022-09-22T01:16:01.497Z,1.80
2022-09-22T01:18:34.240Z,1.55
2022-09-22T01:21:20.350Z,1.77
2022-09-22T01:24:12.496Z,1.73
2022-09-22T01:26:50.190Z,1.48
2022-09-22T01:29:37.031Z,1.60
2022-09-22T01:32:06.967Z,1.73
2022-09-22T01:34:36.715Z,1.77
2022-09-22T01:37:06.991Z,1.70
2022-09-22T01:39:35.961Z,1.50
2022-09-22T01:42:05.784Z,1.77
2022-09-22T01:44:34.469Z,1.70
2022-09-22T01:47:03.457Z,1.60
2022-09-22T01:49:34.451Z,1.63
2022-09-22T01:52:03.691Z,1.70
2022-09-22T01:54:33.062Z,1.60
2022-09-22T01:57:04.446Z,1.60
2022-09-22T01:59:32.196Z,1.52
2022-09-22T02:02:02.216Z,1.75
2022-09-22T02:04:33.164Z,1.60
2022-09-22T02:07:01.995Z,1.70
2022-09-22T02:09:30.748Z,1.67
2022-09-22T02:11:58.406Z,1.50
2022-09-22T02:14:26.077Z,1.65
2022-09-22T02:16:54.192Z,1.70
2022-09-22T02:19:24.188Z,1.80
2022-09-22T02:21:53.194Z,1.50
2022-09-22T02:24:31.127Z,1.77
2022-09-22T02:26:59.182Z,1.70
2022-09-22T02:29:27.404Z,1.63
2022-09-22T02:31:55.185Z,1.60
2022-09-22T02:34:22.908Z,1.50
2022-09-22T02:36:57.234Z,1.70
2022-09-22T02:39:27.326Z,1.98
2022-09-22T02:42:01.688Z,2.00
2022-09-22T02:44:30.967Z,1.50
2022-09-22T02:47:00.752Z,1.60
2022-09-22T02:49:28.470Z,1.90
2022-09-22T02:51:57.421Z,1.52
2022-09-22T02:54:25.111Z,1.83
2022-09-22T02:56:52.759Z,1.58
2022-09-22T02:59:21.054Z,1.55
2022-09-22T03:01:49.734Z,1.90
2022-09-22T03:04:17.437Z,1.83
2022-09-22T03:06:45.058Z,1.60
2022-09-22T03:09:16.545Z,1.67
2022-09-22T03:11:44.371Z,1.50
2022-09-22T03:14:12.045Z,1.80
2022-09-22T03:16:39.704Z,1.60
2022-09-22T03:19:07.376Z,1.40
2022-09-22T03:21:35.054Z,1.77
2022-09-22T03:24:03.202Z,1.73
2022-09-22T03:26:32.153Z,1.70
2022-09-22T03:29:00.058Z,1.80
2022-09-22T03:31:27.790Z,1.88
2022-09-22T03:33:55.491Z,1.73
2022-09-22T03:36:23.264Z,1.77
2022-09-22T03:38:51.984Z,1.45
2022-09-22T03:41:19.705Z,1.70
2022-09-22T03:43:48.663Z,1.80
2022-09-22T03:46:16.360Z,1.80
2022-09-22T03:48:45.340Z,1.60
2022-09-22T03:51:13.318Z,1.50
2022-09-22T03:53:41.096Z,1.60
2022-09-22T03:56:10.007Z,1.60
2022-09-22T03:58:37.878Z,1.67
2022-09-22T04:01:07.252Z,1.63
2022-09-22T04:03:35.132Z,1.50
2022-09-22T04:06:02.804Z,2.00
2022-09-22T04:08:30.521Z,1.85
2022-09-22T04:10:59.872Z,1.83
2022-09-22T04:13:27.557Z,1.90
2022-09-22T04:15:55.204Z,1.83
2022-09-22T04:18:26.308Z,1.83
2022-09-22T04:20:57.139Z,1.63
2022-09-22T04:23:25.062Z,2.13
2022-09-22T04:25:52.778Z,1.80
2022-09-22T04:28:20.482Z,1.70
2022-09-22T04:30:48.241Z,1.90
2022-09-22T04:33:15.985Z,1.80
2022-09-22T04:35:44.986Z,2.00
2022-09-22T04:38:13.866Z,1.75
2022-09-22T04:40:41.615Z,1.52
2022-09-22T04:43:09.421Z,1.85
2022-09-22T04:45:39.639Z,1.70
2022-09-22T04:48:07.621Z,1.40
2022-09-22T04:50:35.274Z,1.70
2022-09-22T04:53:09.104Z,1.80
2022-09-22T04:55:36.763Z,2.00
2022-09-22T04:58:04.424Z,1.80
2022-09-22T05:00:32.175Z,1.80
2022-09-22T05:03:01.875Z,1.70
2022-09-22T05:05:29.799Z,1.70
2022-09-22T05:07:57.571Z,1.75
2022-09-22T05:10:27.174Z,1.63
2022-09-22T05:12:54.845Z,1.83
2022-09-22T05:15:22.670Z,1.50
2022-09-22T05:17:51.285Z,1.95
2022-09-22T05:20:19.266Z,1.80
2022-09-22T05:22:47.319Z,1.50
2022-09-22T05:25:16.043Z,1.85
2022-09-22T05:27:49.138Z,1.60
2022-09-22T05:30:17.033Z,1.90
2022-09-22T05:32:45.072Z,1.73
2022-09-22T05:35:12.795Z,1.67
2022-09-22T05:37:40.504Z,1.70
2022-09-22T05:40:08.996Z,1.80
2022-09-22T05:42:40.610Z,1.60
2022-09-22T05:45:10.748Z,1.88
2022-09-22T05:47:38.491Z,1.67
2022-09-22T05:50:07.334Z,1.63
2022-09-22T05:52:35.071Z,1.80
2022-09-22T05:55:02.770Z,1.60
2022-09-22T05:57:31.760Z,1.50
2022-09-22T05:59:59.604Z,1.75
2022-09-22T06:02:28.626Z,1.90
2022-09-22T06:04:56.356Z,1.60
2022-09-22T06:07:24.815Z,1.83
2022-09-22T06:09:52.481Z,1.65
2022-09-22T06:12:20.129Z,1.60
2022-09-22T06:14:47.775Z,1.70
2022-09-22T06:17:15.405Z,1.80
2022-09-22T06:19:46.121Z,1.60
2022-09-22T06:22:13.774Z,1.80
2022-09-22T06:24:41.414Z,1.60
2022-09-22T06:27:09.074Z,1.83
2022-09-22T06:29:37.840Z,1.90
2022-09-22T06:32:07.374Z,1.70
2022-09-22T06:34:35.230Z,1.70
2022-09-22T06:37:04.877Z,1.50
2022-09-22T06:39:32.925Z,1.65
2022-09-22T06:42:01.049Z,1.50
2022-09-22T06:44:29.005Z,1.52
2022-09-22T06:46:56.668Z,1.80
2022-09-22T06:49:24.353Z,1.90
2022-09-22T06:51:52.033Z,1.70
2022-09-22T06:54:23.729Z,1.70
2022-09-22T06:56:52.886Z,2.03
2022-09-22T06:59:20.998Z,1.80
2022-09-22T07:01:48.968Z,1.60
2022-09-22T07:04:17.618Z,1.60
2022-09-22T07:06:45.666Z,1.92
2022-09-22T07:09:13.335Z,1.80
2022-09-22T07:11:42.301Z,1.67
2022-09-22T07:14:10.152Z,1.70
2022-09-22T07:16:37.850Z,1.80
2022-09-22T07:19:05.704Z,1.90
2022-09-22T07:21:36.292Z,1.65
2022-09-22T07:24:08.031Z,1.63
2022-09-22T07:26:36.549Z,1.70
2022-09-22T07:29:07.714Z,1.77
2022-09-22T07:31:36.609Z,1.90
2022-09-22T07:34:04.457Z,1.60
2022-09-22T07:36:32.772Z,1.60
2022-09-22T07:39:04.624Z,1.70
2022-09-22T07:41:34.511Z,1.73
2022-09-22T07:44:22.560Z,1.70
2022-09-22T07:46:51.597Z,2.00
2022-09-22T07:49:20.344Z,1.63
2022-09-22T07:51:48.187Z,1.80
2022-09-22T07:54:15.940Z,1.60
2022-09-22T07:56:44.248Z,1.73
2022-09-22T07:59:12.911Z,1.75
2022-09-22T08:01:44.340Z,1.60
2022-09-22T08:04:15.529Z,1.67
2022-09-22T08:06:43.271Z,1.58
2022-09-22T08:09:11.116Z,1.60
2022-09-22T08:11:39.174Z,1.50
2022-09-22T08:14:07.899Z,1.73
2022-09-22T08:16:36.299Z,1.52
2022-09-22T08:19:10.364Z,1.50
2022-09-22T08:21:48.038Z,1.80
2022-09-22T08:24:21.044Z,1.50
2022-09-22T08:26:50.027Z,1.50
2022-09-22T08:29:17.708Z,1.95
2022-09-22T08:31:46.784Z,1.42
2022-09-22T08:34:16.175Z,1.60
2022-09-22T08:36:47.006Z,1.60
2022-09-22T08:39:14.768Z,1.60
2022-09-22T08:41:47.451Z,1.90
2022-09-22T08:44:19.760Z,1.70
2022-09-22T08:46:48.421Z,1.70
2022-09-22T08:49:36.490Z,1.50
2022-09-22T08:52:07.059Z,1.70
2022-09-22T08:54:35.267Z,1.60
2022-09-22T08:57:29.376Z,1.80
2022-09-22T08:59:59.911Z,1.50
2022-09-22T09:02:36.691Z,1.85
2022-09-22T09:05:43.356Z,1.73
2022-09-22T09:08:19.740Z,1.60
2022-09-22T09:10:50.487Z,1.60
2022-09-22T09:13:26.064Z,1.40
2022-09-22T09:16:01.051Z,1.67
2022-09-22T09:18:31.489Z,1.48
2022-09-22T09:20:59.409Z,1.70
2022-09-22T09:26:19.456Z,1.67
2022-09-22T09:28:48.480Z,1.70
2022-09-22T09:31:19.746Z,1.52
2022-09-22T09:33:54.935Z,1.70
2022-09-22T09:36:22.968Z,1.60
2022-09-22T09:38:53.636Z,1.70
2022-09-22T09:41:23.187Z,1.60
2022-09-22T09:43:53.191Z,1.48
2022-09-22T09:46:27.014Z,1.70
2022-09-22T09:49:05.405Z,1.60
2022-09-22T09:51:39.905Z,1.70
2022-09-22T09:54:14.457Z,1.70
2022-09-22T09:57:04.256Z,1.67
2022-09-22T09:59:49.604Z,1.70
2022-09-22T10:02:20.118Z,1.77
2022-09-22T10:04:50.034Z,1.40
2022-09-22T10:07:18.692Z,1.33
2022-09-22T10:09:48.700Z,1.73
2022-09-22T10:12:24.656Z,1.55
2022-09-22T10:14:52.759Z,1.60
2022-09-22T10:17:21.856Z,1.50
2022-09-22T10:19:50.628Z,1.60
2022-09-22T10:22:26.134Z,1.48
2022-09-22T10:24:57.073Z,1.63
2022-09-22T10:27:25.867Z,1.52
2022-09-22T10:30:17.271Z,1.67
2022-09-22T10:32:47.547Z,1.67
2022-09-22T10:35:26.822Z,1.40
2022-09-22T10:37:56.159Z,1.25
2022-09-22T10:40:25.208Z,1.40
2022-09-22T10:42:52.980Z,1.35
2022-09-22T10:45:20.831Z,1.50
2022-09-22T10:47:56.827Z,1.23
2022-09-22T10:50:53.480Z,1.70
2022-09-22T10:53:32.949Z,1.60
2022-09-22T10:56:06.375Z,1.50
2022-09-22T10:58:56.170Z,1.40
2022-09-22T11:01:39.375Z,1.40
2022-09-22T11:04:16.543Z,1.50
2022-09-22T11:07:24.484Z,1.42
2022-09-22T11:10:11.920Z,1.63
2022-09-22T11:12:46.636Z,1.48
2022-09-22T11:15:23.834Z,1.50
2022-09-22T11:18:01.911Z,1.50
2022-09-22T11:20:34.172Z,1.58
2022-09-22T11:23:29.864Z,1.48
2022-09-22T11:26:05.234Z,1.52
2022-09-22T11:28:42.326Z,1.35
2022-09-22T11:31:11.391Z,1.42
2022-09-22T11:34:09.176Z,1.40
2022-09-22T11:36:42.621Z,1.55
2022-09-22T11:39:15.469Z,1.40
2022-09-22T11:41:45.180Z,1.50
2022-09-22T11:44:37.206Z,1.45
2022-09-22T11:47:24.319Z,1.20
2022-09-22T11:50:14.181Z,1.40
2022-09-22T11:52:51.088Z,1.27
2022-09-22T11:55:23.407Z,1.40
2022-09-22T11:57:52.820Z,1.42
2022-09-22T12:00:22.035Z,1.58
2022-09-22T12:02:50.754Z,1.45
2022-09-22T12:05:20.424Z,1.60
2022-09-22T12:07:50.608Z,1.30
2022-09-22T12:10:22.827Z,1.50
2022-09-22T12:12:51.702Z,1.25
2022-09-22T12:15:24.655Z,1.08
2022-09-22T12:17:54.995Z,1.70
2022-09-22T12:20:31.911Z,1.38
2022-09-22T12:23:19.447Z,1.77
2022-09-22T12:25:48.967Z,1.92
2022-09-22T12:28:18.591Z,1.52
2022-09-22T12:31:06.281Z,1.90
2022-09-22T12:33:34.382Z,1.80
2022-09-22T12:36:02.311Z,2.13
2022-09-22T12:38:31.428Z,1.83
2022-09-22T12:41:02.333Z,1.75
2022-09-22T12:43:30.004Z,1.80
2022-09-22T12:45:57.887Z,1.95
2022-09-22T12:48:28.012Z,2.05
2022-09-22T12:51:00.627Z,2.03
2022-09-22T12:53:29.194Z,1.50
2022-09-22T12:55:56.998Z,1.95
2022-09-22T12:58:40.841Z,2.78
2022-09-22T13:01:32.722Z,2.33
2022-09-22T13:04:16.893Z,2.30
2022-09-22T13:07:05.543Z,2.17
2022-09-22T13:09:33.190Z,2.80
2022-09-22T13:12:26.939Z,2.50
2022-09-22T13:15:02.285Z,2.20
2022-09-22T13:17:42.893Z,2.67
2022-09-22T13:20:22.813Z,2.40
2022-09-22T13:22:51.891Z,2.25
2022-09-22T13:25:25.397Z,2.40
2022-09-22T13:28:13.727Z,2.40
2022-09-22T13:30:42.133Z,2.67
2022-09-22T13:33:20.231Z,2.20
2022-09-22T13:35:51.324Z,2.65
2022-09-22T13:38:19.237Z,3.03
2022-09-22T13:40:49.190Z,2.47
2022-09-22T13:43:24.313Z,2.58
2022-09-22T13:45:52.220Z,2.58
2022-09-22T13:48:19.929Z,2.80
2022-09-22T13:50:51.118Z,2.65
2022-09-22T13:53:19.386Z,2.47
2022-09-22T13:55:48.305Z,2.15
2022-09-22T13:58:16.475Z,2.20
2022-09-22T14:01:12.239Z,2.45
2022-09-22T14:03:37.005Z,2.10
2022-09-22T14:06:06.768Z,2.00
2022-09-22T14:08:34.466Z,2.08
2022-09-22T14:11:02.229Z,2.00
2022-09-22T14:13:40.343Z,1.67
2022-09-22T14:16:22.092Z,2.80
2022-09-22T14:18:51.438Z,2.25
2022-09-22T14:21:20.778Z,2.17
2022-09-22T14:23:49.585Z,2.08
2022-09-22T14:26:27.479Z,2.40
2022-09-22T14:28:55.400Z,1.85
2022-09-22T14:31:24.077Z,1.85
2022-09-22T14:33:51.771Z,1.33
2022-09-22T14:36:23.259Z,1.90
2022-09-22T14:39:04.886Z,2.05
2022-09-22T14:41:37.324Z,1.83
2022-09-22T14:44:26.344Z,1.67
2022-09-22T14:46:56.176Z,1.40
2022-09-22T14:49:37.380Z,1.98
2022-09-22T14:52:07.462Z,2.00
2022-09-22T14:54:35.763Z,1.70
2022-09-22T14:57:04.127Z,1.98
2022-09-22T14:59:50.854Z,1.73
2022-09-22T15:02:33.927Z,1.58
2022-09-22T15:05:03.478Z,1.92
2022-09-22T15:07:33.756Z,1.80
2022-09-22T15:10:02.520Z,2.25
2022-09-22T15:12:40.600Z,2.40
2022-09-22T15:15:18.955Z,2.13
2022-09-22T15:18:04.747Z,1.83
2022-09-22T15:20:43.987Z,1.73
2022-09-22T15:23:16.748Z,2.10
2022-09-22T15:25:44.579Z,2.20
2022-09-22T15:28:13.666Z,2.33
2022-09-22T15:30:42.418Z,2.40
2022-09-22T15:33:14.348Z,2.38
2022-09-22T15:35:42.538Z,2.05
2022-09-22T15:38:16.171Z,2.00
2022-09-22T15:40:44.492Z,1.83
2022-09-22T15:43:13.760Z,2.75
2022-09-22T15:45:48.005Z,2.30
2022-09-22T15:48:27.611Z,2.60
2022-09-22T15:50:55.615Z,2.05
2022-09-22T15:53:24.714Z,1.80
2022-09-22T15:55:52.628Z,2.47
2022-09-22T15:58:22.752Z,2.60
2022-09-22T16:00:51.197Z,2.40
2022-09-22T16:03:22.101Z,2.70
2022-09-22T16:05:51.648Z,2.13
2022-09-22T16:08:25.748Z,2.90
2022-09-22T16:10:53.616Z,2.92
2022-09-22T16:13:21.264Z,3.25
2022-09-22T16:15:50.288Z,2.70
2022-09-22T16:18:18.144Z,3.40
2022-09-22T16:20:47.006Z,2.88
2022-09-22T16:23:14.716Z,3.40
2022-09-22T16:25:43.944Z,3.17
2022-09-22T16:28:11.672Z,2.70
2022-09-22T16:30:39.362Z,3.08
2022-09-22T16:33:07.002Z,2.72
2022-09-22T16:35:34.660Z,2.78
2022-09-22T16:38:02.799Z,3.33
2022-09-22T16:40:31.216Z,2.97
2022-09-22T16:43:00.207Z,2.90
2022-09-22T16:45:45.252Z,2.95
2022-09-22T16:48:13.147Z,3.05
2022-09-22T16:50:42.952Z,2.47
2022-09-22T16:53:11.064Z,2.28
2022-09-22T16:55:38.744Z,2.95
2022-09-22T16:58:13.490Z,2.90
2022-09-22T17:00:41.186Z,2.55
2022-09-22T17:03:09.136Z,2.30
2022-09-22T17:05:37.887Z,2.75
2022-09-22T17:08:06.903Z,2.40
2022-09-22T17:10:35.494Z,2.85
2022-09-22T17:13:04.642Z,2.47
2022-09-22T17:15:35.638Z,2.95
2022-09-22T17:18:04.091Z,2.45
2022-09-22T17:20:31.759Z,2.55
2022-09-22T17:22:59.408Z,2.20
2022-09-22T17:25:29.179Z,2.17
2022-09-22T17:27:57.629Z,2.58
2022-09-22T17:30:25.735Z,2.63
2022-09-22T17:32:54.727Z,2.42
2022-09-22T17:35:22.401Z,2.20
2022-09-22T17:37:51.705Z,2.58
2022-09-22T17:40:19.500Z,2.45
2022-09-22T17:42:47.605Z,2.08
2022-09-22T17:45:15.453Z,2.63
2022-09-22T17:48:00.715Z,2.25
2022-09-22T17:50:47.350Z,2.25
2022-09-22T17:53:32.758Z,2.58
2022-09-22T17:56:04.951Z,2.22
2022-09-22T17:58:32.790Z,1.92
2022-09-22T18:01:00.510Z,1.90
2022-09-22T18:03:28.967Z,1.90
2022-09-22T18:05:58.239Z,2.63
2022-09-22T18:08:26.056Z,2.10
2022-09-22T18:10:54.315Z,1.85
2022-09-22T18:13:21.960Z,2.00
2022-09-22T18:15:50.872Z,2.28
2022-09-22T18:18:18.566Z,2.08
2022-09-22T18:20:46.263Z,1.80
2022-09-22T18:23:15.231Z,2.03
2022-09-22T18:25:42.888Z,2.20
2022-09-22T18:28:10.639Z,2.28
2022-09-22T18:30:40.512Z,2.05
2022-09-22T18:33:08.170Z,1.80
2022-09-22T18:35:35.800Z,2.00
2022-09-22T18:38:03.848Z,2.38
2022-09-22T18:40:32.933Z,2.10
2022-09-22T18:43:00.626Z,2.00
2022-09-22T18:45:28.674Z,2.00
2022-09-22T18:47:59.002Z,2.42
2022-09-22T18:50:26.943Z,2.10
2022-09-22T18:52:56.609Z,1.90
2022-09-22T18:55:24.267Z,1.80
2022-09-22T18:57:53.969Z,2.10
2022-09-22T19:00:21.935Z,1.90
2022-09-22T19:02:50.266Z,1.85
2022-09-22T19:05:18.138Z,1.92
2022-09-22T19:07:47.614Z,1.85
2022-09-22T19:10:16.000Z,1.80
2022-09-22T19:12:43.699Z,1.70
2022-09-22T19:15:15.012Z,1.92
2022-09-22T19:17:43.834Z,1.73
2022-09-22T19:20:13.444Z,1.70
2022-09-22T19:22:41.227Z,1.70
2022-09-22T19:25:09.599Z,1.67
2022-09-22T19:27:38.357Z,1.90
2022-09-22T19:30:07.008Z,1.83
2022-09-22T19:32:36.008Z,1.83
2022-09-22T19:35:03.754Z,1.70
2022-09-22T19:37:31.542Z,1.50
2022-09-22T19:39:59.172Z,2.10
2022-09-22T19:42:28.346Z,1.90
2022-09-22T19:44:55.964Z,1.67
2022-09-22T19:47:23.682Z,1.70
2022-09-22T19:49:52.717Z,1.77
2022-09-22T19:52:20.345Z,1.85
2022-09-22T19:54:48.271Z,1.67
2022-09-22T19:57:15.899Z,1.70
2022-09-22T19:59:44.803Z,1.73
2022-09-22T20:02:12.816Z,1.63
2022-09-22T20:04:40.450Z,1.70
2022-09-22T20:07:10.761Z,1.50
2022-09-22T20:09:38.531Z,1.55
2022-09-22T20:12:06.308Z,1.60
2022-09-22T20:14:34.351Z,1.60
2022-09-22T20:17:03.212Z,1.60
2022-09-22T20:19:32.237Z,1.80
2022-09-22T20:22:20.474Z,1.90
2022-09-22T20:24:53.755Z,1.50
2022-09-22T20:27:23.792Z,1.60
2022-09-22T20:29:56.252Z,1.50
2022-09-22T20:32:25.392Z,2.00
2022-09-22T20:34:54.006Z,1.65
2022-09-22T20:37:23.076Z,1.67
2022-09-22T20:39:50.736Z,1.45
2022-09-22T20:42:18.379Z,1.50
2022-09-22T20:44:46.748Z,1.50
2022-09-22T20:47:15.544Z,1.42
2022-09-22T20:49:45.046Z,1.73
2022-09-22T20:52:16.240Z,1.33
2022-09-22T20:54:46.216Z,1.83
2022-09-22T20:57:14.125Z,1.67
2022-09-22T20:59:42.437Z,1.50
2022-09-22T21:02:10.569Z,1.50
2022-09-22T21:04:38.244Z,1.40
2022-09-22T21:07:05.961Z,1.40
2022-09-22T21:09:51.221Z,1.67
2022-09-22T21:12:20.191Z,1.48
2022-09-22T21:14:48.697Z,1.55
2022-09-22T21:17:17.324Z,1.50
2022-09-22T21:19:46.331Z,1.50
2022-09-22T21:22:13.985Z,1.52
2022-09-22T21:24:42.951Z,1.73
2022-09-22T21:27:10.596Z,1.40
2022-09-22T21:29:39.562Z,1.40
2022-09-22T21:32:07.325Z,1.75
2022-09-22T21:34:35.692Z,1.25
2022-09-22T21:37:03.379Z,1.60
2022-09-22T21:39:30.992Z,1.30
2022-09-22T21:41:58.630Z,1.40
2022-09-22T21:44:26.316Z,1.67
2022-09-22T21:46:55.308Z,1.48
2022-09-22T21:49:23.164Z,1.30
2022-09-22T21:51:50.812Z,1.30
2022-09-22T21:54:19.140Z,1.63
2022-09-22T21:56:46.852Z,1.40
2022-09-22T21:59:14.640Z,1.30
2022-09-22T22:01:44.891Z,1.40
2022-09-22T22:04:15.163Z,1.55
2022-09-22T22:06:43.769Z,1.25
2022-09-22T22:09:15.194Z,1.42
2022-09-22T22:11:43.688Z,1.73
2022-09-22T22:14:12.483Z,1.40
2022-09-22T22:16:40.872Z,1.30
2022-09-22T22:19:09.433Z,1.40
2022-09-22T22:21:40.812Z,1.23
2022-09-22T22:24:28.359Z,1.20
2022-09-22T22:26:57.085Z,1.52
2022-09-22T22:29:27.000Z,1.33
2022-09-22T22:31:54.785Z,1.42
2022-09-22T22:34:25.423Z,1.50
2022-09-22T22:36:54.401Z,1.40
2022-09-22T22:39:22.022Z,1.60
2022-09-22T22:41:49.761Z,1.30
2022-09-22T22:44:17.863Z,1.52
2022-09-22T22:46:45.558Z,1.40
2022-09-22T22:49:13.298Z,1.30
2022-09-22T22:51:42.995Z,1.23
2022-09-22T22:54:12.091Z,1.33
2022-09-22T22:56:42.430Z,1.50
2022-09-22T22:59:11.002Z,1.20
2022-09-22T23:01:40.216Z,1.30
2022-09-22T23:04:08.627Z,1.25
2022-09-22T23:06:38.805Z,1.40
2022-09-22T23:09:07.589Z,1.55
2022-09-22T23:11:37.380Z,1.27
2022-09-22T23:14:06.059Z,1.15
2022-09-22T23:16:34.616Z,1.25
2022-09-22T23:19:03.128Z,1.60
2022-09-22T23:21:31.147Z,1.48
2022-09-22T23:23:59.745Z,1.27
2022-09-22T23:26:28.808Z,1.35
2022-09-22T23:28:58.145Z,1.42
2022-09-22T23:31:25.884Z,1.50
2022-09-22T23:33:53.700Z,1.30
2022-09-22T23:36:22.394Z,1.33
2022-09-22T23:38:53.518Z,1.30
2022-09-22T23:41:21.381Z,1.30
2022-09-22T23:43:49.531Z,1.50
2022-09-22T23:46:19.268Z,1.40
2022-09-22T23:48:47.385Z,1.30
2022-09-22T23:51:15.383Z,1.25
2022-09-22T23:53:43.212Z,1.20
2022-09-22T23:56:10.843Z,1.20
2022-09-22T23:58:38.923Z,1.20
